sensor_id;sensor_type;location;lat;lon;timestamp;P1;durP1;ratioP1;P2;durP2;ratioP2
62014;SDS011;47970;52.396;9.586;2022-08-03T00:01:17;7.80;;;3.70;;
62014;SDS011;47970;52.396;9.586;2022-08-03T00:03:43;7.07;;;3.00;;
62014;SDS011;47970;52.396;9.586;2022-08-03T00:06:08;8.80;;;3.72;;
62014;SDS011;47970;52.396;9.586;2022-08-03T00:08:34;10.77;;;3.80;;
62014;SDS011;47970;52.396;9.586;2022-08-03T00:10:59;9.50;;;3.90;;
62014;SDS011;47970;52.396;9.586;2022-08-03T00:13:24;6.82;;;4.03;;
62014;SDS011;47970;52.396;9.586;2022-08-03T00:15:50;6.63;;;3.38;;
62014;SDS011;47970;52.396;9.586;2022-08-03T00:18:15;11.57;;;3.85;;
62014;SDS011;47970;52.396;9.586;2022-08-03T00:20:41;7.13;;;3.43;;
62014;SDS011;47970;52.396;9.586;2022-08-03T00:23:06;4.97;;;3.07;;
62014;SDS011;47970;52.396;9.586;2022-08-03T00:25:32;6.43;;;2.93;;
62014;SDS011;47970;52.396;9.586;2022-08-03T00:27:57;5.30;;;3.30;;
62014;SDS011;47970;52.396;9.586;2022-08-03T00:30:23;5.97;;;3.30;;
62014;SDS011;47970;52.396;9.586;2022-08-03T00:32:48;9.20;;;3.23;;
62014;SDS011;47970;52.396;9.586;2022-08-03T00:35:13;5.47;;;2.80;;
62014;SDS011;47970;52.396;9.586;2022-08-03T00:37:38;8.17;;;3.10;;
62014;SDS011;47970;52.396;9.586;2022-08-03T00:40:04;8.83;;;3.30;;
62014;SDS011;47970;52.396;9.586;2022-08-03T00:42:29;5.88;;;2.85;;
62014;SDS011;47970;52.396;9.586;2022-08-03T00:44:54;4.77;;;3.13;;
62014;SDS011;47970;52.396;9.586;2022-08-03T00:47:20;8.23;;;3.00;;
62014;SDS011;47970;52.396;9.586;2022-08-03T00:49:45;10.10;;;3.07;;
62014;SDS011;47970;52.396;9.586;2022-08-03T00:52:10;7.93;;;3.23;;
62014;SDS011;47970;52.396;9.586;2022-08-03T00:54:37;6.50;;;3.30;;
62014;SDS011;47970;52.396;9.586;2022-08-03T00:57:03;8.23;;;3.00;;
62014;SDS011;47970;52.396;9.586;2022-08-03T00:59:28;7.85;;;3.35;;
62014;SDS011;47970;52.396;9.586;2022-08-03T01:01:54;5.85;;;3.20;;
62014;SDS011;47970;52.396;9.586;2022-08-03T01:04:19;3.88;;;2.60;;
62014;SDS011;47970;52.396;9.586;2022-08-03T01:06:45;10.07;;;3.30;;
62014;SDS011;47970;52.396;9.586;2022-08-03T01:09:18;5.28;;;2.88;;
62014;SDS011;47970;52.396;9.586;2022-08-03T01:11:48;7.30;;;3.15;;
62014;SDS011;47970;52.396;9.586;2022-08-03T01:14:17;6.57;;;3.05;;
62014;SDS011;47970;52.396;9.586;2022-08-03T01:21:58;6.82;;;3.03;;
62014;SDS011;47970;52.396;9.586;2022-08-03T01:24:34;5.50;;;3.13;;
62014;SDS011;47970;52.396;9.586;2022-08-03T01:32:11;7.03;;;2.95;;
62014;SDS011;47970;52.396;9.586;2022-08-03T01:34:42;5.53;;;2.95;;
62014;SDS011;47970;52.396;9.586;2022-08-03T01:37:09;8.55;;;2.80;;
62014;SDS011;47970;52.396;9.586;2022-08-03T01:39:35;9.27;;;3.15;;
62014;SDS011;47970;52.396;9.586;2022-08-03T01:42:03;6.85;;;3.10;;
62014;SDS011;47970;52.396;9.586;2022-08-03T01:44:34;4.35;;;2.72;;
62014;SDS011;47970;52.396;9.586;2022-08-03T01:47:01;7.18;;;3.00;;
62014;SDS011;47970;52.396;9.586;2022-08-03T01:49:27;4.47;;;2.80;;
62014;SDS011;47970;52.396;9.586;2022-08-03T01:51:54;6.15;;;3.13;;
62014;SDS011;47970;52.396;9.586;2022-08-03T01:54:19;6.60;;;3.10;;
62014;SDS011;47970;52.396;9.586;2022-08-03T01:56:45;8.35;;;3.38;;
62014;SDS011;47970;52.396;9.586;2022-08-03T01:59:12;6.20;;;2.80;;
62014;SDS011;47970;52.396;9.586;2022-08-03T02:01:39;7.45;;;3.28;;
62014;SDS011;47970;52.396;9.586;2022-08-03T02:04:04;2.97;;;2.42;;
62014;SDS011;47970;52.396;9.586;2022-08-03T02:06:31;7.63;;;2.63;;
62014;SDS011;47970;52.396;9.586;2022-08-03T02:08:57;7.30;;;2.83;;
62014;SDS011;47970;52.396;9.586;2022-08-03T02:11:23;5.00;;;2.72;;
62014;SDS011;47970;52.396;9.586;2022-08-03T02:13:48;5.70;;;2.70;;
62014;SDS011;47970;52.396;9.586;2022-08-03T02:16:14;6.95;;;2.85;;
62014;SDS011;47970;52.396;9.586;2022-08-03T02:18:41;6.72;;;3.17;;
62014;SDS011;47970;52.396;9.586;2022-08-03T02:21:08;9.93;;;3.63;;
62014;SDS011;47970;52.396;9.586;2022-08-03T02:23:34;5.25;;;2.95;;
62014;SDS011;47970;52.396;9.586;2022-08-03T02:26:01;6.65;;;2.88;;
62014;SDS011;47970;52.396;9.586;2022-08-03T02:28:36;5.38;;;2.90;;
62014;SDS011;47970;52.396;9.586;2022-08-03T02:31:03;6.47;;;2.88;;
62014;SDS011;47970;52.396;9.586;2022-08-03T02:33:30;7.88;;;3.13;;
62014;SDS011;47970;52.396;9.586;2022-08-03T02:35:56;6.60;;;3.58;;
62014;SDS011;47970;52.396;9.586;2022-08-03T02:38:25;6.25;;;3.13;;
62014;SDS011;47970;52.396;9.586;2022-08-03T02:40:51;5.32;;;3.10;;
62014;SDS011;47970;52.396;9.586;2022-08-03T02:43:19;18.15;;;2.78;;
62014;SDS011;47970;52.396;9.586;2022-08-03T02:45:46;6.93;;;3.20;;
62014;SDS011;47970;52.396;9.586;2022-08-03T02:48:11;7.32;;;2.97;;
62014;SDS011;47970;52.396;9.586;2022-08-03T02:50:40;6.57;;;2.90;;
62014;SDS011;47970;52.396;9.586;2022-08-03T02:53:06;6.75;;;3.20;;
62014;SDS011;47970;52.396;9.586;2022-08-03T02:55:32;8.18;;;3.08;;
62014;SDS011;47970;52.396;9.586;2022-08-03T02:57:58;8.60;;;2.92;;
62014;SDS011;47970;52.396;9.586;2022-08-03T03:00:24;6.60;;;3.00;;
62014;SDS011;47970;52.396;9.586;2022-08-03T03:02:50;5.90;;;3.00;;
62014;SDS011;47970;52.396;9.586;2022-08-03T03:05:16;12.27;;;3.05;;
62014;SDS011;47970;52.396;9.586;2022-08-03T03:07:41;8.35;;;3.15;;
62014;SDS011;47970;52.396;9.586;2022-08-03T03:10:07;10.57;;;3.33;;
62014;SDS011;47970;52.396;9.586;2022-08-03T03:12:33;9.10;;;3.17;;
62014;SDS011;47970;52.396;9.586;2022-08-03T03:14:59;10.00;;;2.95;;
62014;SDS011;47970;52.396;9.586;2022-08-03T03:17:25;6.65;;;3.00;;
62014;SDS011;47970;52.396;9.586;2022-08-03T03:19:51;8.85;;;3.50;;
62014;SDS011;47970;52.396;9.586;2022-08-03T03:22:17;6.05;;;2.97;;
62014;SDS011;47970;52.396;9.586;2022-08-03T03:24:43;8.57;;;3.70;;
62014;SDS011;47970;52.396;9.586;2022-08-03T03:27:09;15.75;;;3.50;;
62014;SDS011;47970;52.396;9.586;2022-08-03T03:29:35;5.32;;;2.80;;
62014;SDS011;47970;52.396;9.586;2022-08-03T03:32:00;9.23;;;3.50;;
62014;SDS011;47970;52.396;9.586;2022-08-03T03:34:27;11.73;;;3.20;;
62014;SDS011;47970;52.396;9.586;2022-08-03T03:36:53;5.53;;;2.88;;
62014;SDS011;47970;52.396;9.586;2022-08-03T03:39:18;11.27;;;3.50;;
62014;SDS011;47970;52.396;9.586;2022-08-03T03:41:43;5.83;;;2.90;;
62014;SDS011;47970;52.396;9.586;2022-08-03T03:44:09;4.80;;;3.03;;
62014;SDS011;47970;52.396;9.586;2022-08-03T03:46:34;4.85;;;3.00;;
62014;SDS011;47970;52.396;9.586;2022-08-03T03:48:59;6.90;;;3.00;;
62014;SDS011;47970;52.396;9.586;2022-08-03T03:51:24;5.23;;;2.77;;
62014;SDS011;47970;52.396;9.586;2022-08-03T03:53:53;14.38;;;3.72;;
62014;SDS011;47970;52.396;9.586;2022-08-03T03:56:19;6.35;;;3.20;;
62014;SDS011;47970;52.396;9.586;2022-08-03T03:58:44;6.50;;;3.40;;
62014;SDS011;47970;52.396;9.586;2022-08-03T04:01:09;10.57;;;4.00;;
62014;SDS011;47970;52.396;9.586;2022-08-03T04:03:36;11.25;;;3.40;;
62014;SDS011;47970;52.396;9.586;2022-08-03T04:06:01;8.13;;;3.07;;
62014;SDS011;47970;52.396;9.586;2022-08-03T04:08:45;12.95;;;3.47;;
62014;SDS011;47970;52.396;9.586;2022-08-03T04:11:36;7.75;;;3.28;;
62014;SDS011;47970;52.396;9.586;2022-08-03T04:14:04;8.38;;;3.45;;
62014;SDS011;47970;52.396;9.586;2022-08-03T04:16:32;8.93;;;3.10;;
62014;SDS011;47970;52.396;9.586;2022-08-03T04:19:00;8.27;;;3.50;;
62014;SDS011;47970;52.396;9.586;2022-08-03T04:21:25;6.28;;;3.60;;
62014;SDS011;47970;52.396;9.586;2022-08-03T04:23:54;8.82;;;3.22;;
62014;SDS011;47970;52.396;9.586;2022-08-03T04:26:20;5.32;;;3.30;;
62014;SDS011;47970;52.396;9.586;2022-08-03T04:28:46;5.13;;;3.08;;
62014;SDS011;47970;52.396;9.586;2022-08-03T04:31:14;5.95;;;2.97;;
62014;SDS011;47970;52.396;9.586;2022-08-03T04:33:40;7.85;;;3.13;;
62014;SDS011;47970;52.396;9.586;2022-08-03T04:36:08;9.35;;;3.25;;
62014;SDS011;47970;52.396;9.586;2022-08-03T04:38:43;6.57;;;2.95;;
62014;SDS011;47970;52.396;9.586;2022-08-03T04:41:14;6.50;;;2.80;;
62014;SDS011;47970;52.396;9.586;2022-08-03T04:43:40;9.07;;;3.25;;
62014;SDS011;47970;52.396;9.586;2022-08-03T04:46:06;7.38;;;2.88;;
62014;SDS011;47970;52.396;9.586;2022-08-03T04:48:31;12.63;;;3.10;;
62014;SDS011;47970;52.396;9.586;2022-08-03T04:50:58;6.70;;;3.10;;
62014;SDS011;47970;52.396;9.586;2022-08-03T04:53:24;8.75;;;3.15;;
62014;SDS011;47970;52.396;9.586;2022-08-03T04:55:50;7.03;;;3.20;;
62014;SDS011;47970;52.396;9.586;2022-08-03T04:58:15;8.40;;;2.90;;
62014;SDS011;47970;52.396;9.586;2022-08-03T05:00:40;5.57;;;2.83;;
62014;SDS011;47970;52.396;9.586;2022-08-03T05:03:06;5.07;;;3.13;;
62014;SDS011;47970;52.396;9.586;2022-08-03T05:05:32;7.10;;;2.80;;
62014;SDS011;47970;52.396;9.586;2022-08-03T05:07:57;5.65;;;2.72;;
62014;SDS011;47970;52.396;9.586;2022-08-03T05:10:22;11.83;;;3.10;;
62014;SDS011;47970;52.396;9.586;2022-08-03T05:12:47;4.00;;;2.57;;
62014;SDS011;47970;52.396;9.586;2022-08-03T05:15:15;5.95;;;2.88;;
62014;SDS011;47970;52.396;9.586;2022-08-03T05:17:40;3.93;;;2.30;;
62014;SDS011;47970;52.396;9.586;2022-08-03T05:20:06;5.13;;;3.00;;
62014;SDS011;47970;52.396;9.586;2022-08-03T05:22:31;8.15;;;2.55;;
62014;SDS011;47970;52.396;9.586;2022-08-03T05:24:56;6.23;;;2.53;;
62014;SDS011;47970;52.396;9.586;2022-08-03T05:27:22;6.10;;;2.30;;
62014;SDS011;47970;52.396;9.586;2022-08-03T05:29:47;7.67;;;2.67;;
62014;SDS011;47970;52.396;9.586;2022-08-03T05:32:13;7.80;;;2.58;;
62014;SDS011;47970;52.396;9.586;2022-08-03T05:34:38;5.15;;;2.83;;
62014;SDS011;47970;52.396;9.586;2022-08-03T05:37:04;3.50;;;2.60;;
62014;SDS011;47970;52.396;9.586;2022-08-03T05:39:29;4.45;;;2.40;;
62014;SDS011;47970;52.396;9.586;2022-08-03T05:41:54;7.27;;;2.50;;
62014;SDS011;47970;52.396;9.586;2022-08-03T05:44:19;4.13;;;2.53;;
62014;SDS011;47970;52.396;9.586;2022-08-03T05:46:45;3.17;;;2.17;;
62014;SDS011;47970;52.396;9.586;2022-08-03T05:49:10;6.57;;;2.72;;
62014;SDS011;47970;52.396;9.586;2022-08-03T05:51:35;11.27;;;2.73;;
62014;SDS011;47970;52.396;9.586;2022-08-03T05:54:01;5.03;;;2.33;;
62014;SDS011;47970;52.396;9.586;2022-08-03T05:56:26;6.88;;;2.58;;
62014;SDS011;47970;52.396;9.586;2022-08-03T05:58:52;15.48;;;3.25;;
62014;SDS011;47970;52.396;9.586;2022-08-03T06:01:17;4.57;;;2.33;;
62014;SDS011;47970;52.396;9.586;2022-08-03T06:03:45;3.92;;;2.42;;
62014;SDS011;47970;52.396;9.586;2022-08-03T06:06:11;8.02;;;2.30;;
62014;SDS011;47970;52.396;9.586;2022-08-03T06:08:36;4.88;;;2.40;;
62014;SDS011;47970;52.396;9.586;2022-08-03T06:11:02;3.78;;;2.03;;
62014;SDS011;47970;52.396;9.586;2022-08-03T06:13:27;4.63;;;2.10;;
62014;SDS011;47970;52.396;9.586;2022-08-03T06:15:53;4.25;;;2.13;;
62014;SDS011;47970;52.396;9.586;2022-08-03T06:18:18;6.80;;;2.13;;
62014;SDS011;47970;52.396;9.586;2022-08-03T06:20:44;5.20;;;2.20;;
62014;SDS011;47970;52.396;9.586;2022-08-03T06:23:09;6.20;;;2.17;;
62014;SDS011;47970;52.396;9.586;2022-08-03T06:25:34;4.72;;;2.28;;
62014;SDS011;47970;52.396;9.586;2022-08-03T06:27:59;3.53;;;2.20;;
62014;SDS011;47970;52.396;9.586;2022-08-03T06:30:25;4.93;;;2.17;;
62014;SDS011;47970;52.396;9.586;2022-08-03T06:32:50;5.95;;;2.00;;
62014;SDS011;47970;52.396;9.586;2022-08-03T06:35:15;5.90;;;2.10;;
62014;SDS011;47970;52.396;9.586;2022-08-03T06:37:41;4.93;;;2.13;;
62014;SDS011;47970;52.396;9.586;2022-08-03T06:40:07;4.55;;;2.13;;
62014;SDS011;47970;52.396;9.586;2022-08-03T06:42:33;6.45;;;2.10;;
62014;SDS011;47970;52.396;9.586;2022-08-03T06:44:58;6.67;;;2.30;;
62014;SDS011;47970;52.396;9.586;2022-08-03T06:47:23;5.80;;;2.33;;
62014;SDS011;47970;52.396;9.586;2022-08-03T06:49:48;2.97;;;1.80;;
62014;SDS011;47970;52.396;9.586;2022-08-03T06:52:13;4.10;;;2.00;;
62014;SDS011;47970;52.396;9.586;2022-08-03T06:54:39;4.53;;;1.90;;
62014;SDS011;47970;52.396;9.586;2022-08-03T06:57:04;3.80;;;2.00;;
62014;SDS011;47970;52.396;9.586;2022-08-03T06:59:29;5.15;;;2.05;;
62014;SDS011;47970;52.396;9.586;2022-08-03T07:01:55;3.23;;;1.90;;
62014;SDS011;47970;52.396;9.586;2022-08-03T07:04:20;6.10;;;1.93;;
62014;SDS011;47970;52.396;9.586;2022-08-03T07:06:45;3.50;;;1.40;;
62014;SDS011;47970;52.396;9.586;2022-08-03T07:09:10;5.90;;;1.80;;
62014;SDS011;47970;52.396;9.586;2022-08-03T07:11:36;5.70;;;1.90;;
62014;SDS011;47970;52.396;9.586;2022-08-03T07:14:01;5.07;;;1.97;;
62014;SDS011;47970;52.396;9.586;2022-08-03T07:16:26;3.63;;;1.90;;
62014;SDS011;47970;52.396;9.586;2022-08-03T07:18:51;9.83;;;2.20;;
62014;SDS011;47970;52.396;9.586;2022-08-03T07:21:17;5.33;;;1.60;;
62014;SDS011;47970;52.396;9.586;2022-08-03T07:23:42;3.40;;;1.80;;
62014;SDS011;47970;52.396;9.586;2022-08-03T07:26:07;3.20;;;1.70;;
62014;SDS011;47970;52.396;9.586;2022-08-03T07:28:32;2.55;;;1.50;;
62014;SDS011;47970;52.396;9.586;2022-08-03T07:30:58;5.43;;;1.95;;
62014;SDS011;47970;52.396;9.586;2022-08-03T07:33:23;8.90;;;1.60;;
62014;SDS011;47970;52.396;9.586;2022-08-03T07:35:48;5.55;;;1.83;;
62014;SDS011;47970;52.396;9.586;2022-08-03T07:38:14;2.73;;;1.60;;
62014;SDS011;47970;52.396;9.586;2022-08-03T07:40:40;4.18;;;1.85;;
62014;SDS011;47970;52.396;9.586;2022-08-03T07:43:05;7.37;;;1.83;;
62014;SDS011;47970;52.396;9.586;2022-08-03T07:45:30;6.97;;;1.50;;
62014;SDS011;47970;52.396;9.586;2022-08-03T07:47:55;4.72;;;1.80;;
62014;SDS011;47970;52.396;9.586;2022-08-03T07:50:21;6.80;;;2.00;;
62014;SDS011;47970;52.396;9.586;2022-08-03T07:52:46;5.30;;;2.00;;
62014;SDS011;47970;52.396;9.586;2022-08-03T07:55:11;5.10;;;2.38;;
62014;SDS011;47970;52.396;9.586;2022-08-03T07:57:37;4.83;;;1.60;;
62014;SDS011;47970;52.396;9.586;2022-08-03T08:00:06;6.23;;;1.33;;
62014;SDS011;47970;52.396;9.586;2022-08-03T08:02:33;3.30;;;1.80;;
62014;SDS011;47970;52.396;9.586;2022-08-03T08:04:58;5.07;;;1.60;;
62014;SDS011;47970;52.396;9.586;2022-08-03T08:07:23;8.70;;;1.70;;
62014;SDS011;47970;52.396;9.586;2022-08-03T08:09:50;4.82;;;1.40;;
62014;SDS011;47970;52.396;9.586;2022-08-03T08:12:15;5.07;;;1.50;;
62014;SDS011;47970;52.396;9.586;2022-08-03T08:14:40;3.93;;;1.23;;
62014;SDS011;47970;52.396;9.586;2022-08-03T08:17:06;6.85;;;1.45;;
62014;SDS011;47970;52.396;9.586;2022-08-03T08:19:31;5.73;;;1.60;;
62014;SDS011;47970;52.396;9.586;2022-08-03T08:21:56;3.83;;;1.40;;
62014;SDS011;47970;52.396;9.586;2022-08-03T08:24:22;8.53;;;1.67;;
62014;SDS011;47970;52.396;9.586;2022-08-03T08:26:47;5.80;;;1.73;;
62014;SDS011;47970;52.396;9.586;2022-08-03T08:29:12;3.67;;;1.50;;
62014;SDS011;47970;52.396;9.586;2022-08-03T08:31:37;7.37;;;1.60;;
62014;SDS011;47970;52.396;9.586;2022-08-03T08:34:03;3.93;;;1.53;;
62014;SDS011;47970;52.396;9.586;2022-08-03T08:36:30;5.85;;;1.60;;
62014;SDS011;47970;52.396;9.586;2022-08-03T08:38:56;4.25;;;1.42;;
62014;SDS011;47970;52.396;9.586;2022-08-03T08:41:21;4.50;;;2.20;;
62014;SDS011;47970;52.396;9.586;2022-08-03T08:43:46;3.20;;;1.43;;
62014;SDS011;47970;52.396;9.586;2022-08-03T08:46:12;5.13;;;1.40;;
62014;SDS011;47970;52.396;9.586;2022-08-03T08:48:39;7.68;;;1.65;;
62014;SDS011;47970;52.396;9.586;2022-08-03T08:51:04;5.30;;;1.60;;
62014;SDS011;47970;52.396;9.586;2022-08-03T08:53:30;3.72;;;1.40;;
62014;SDS011;47970;52.396;9.586;2022-08-03T08:55:59;5.63;;;1.63;;
62014;SDS011;47970;52.396;9.586;2022-08-03T08:58:32;6.28;;;1.30;;
62014;SDS011;47970;52.396;9.586;2022-08-03T09:00:59;5.57;;;1.48;;
62014;SDS011;47970;52.396;9.586;2022-08-03T09:03:25;5.17;;;1.50;;
62014;SDS011;47970;52.396;9.586;2022-08-03T09:05:50;5.10;;;1.60;;
62014;SDS011;47970;52.396;9.586;2022-08-03T09:08:16;2.70;;;1.30;;
62014;SDS011;47970;52.396;9.586;2022-08-03T09:10:42;3.05;;;1.23;;
62014;SDS011;47970;52.396;9.586;2022-08-03T09:13:07;2.00;;;1.13;;
62014;SDS011;47970;52.396;9.586;2022-08-03T09:15:32;5.63;;;1.30;;
62014;SDS011;47970;52.396;9.586;2022-08-03T09:17:58;2.10;;;1.40;;
62014;SDS011;47970;52.396;9.586;2022-08-03T09:20:24;5.03;;;1.33;;
62014;SDS011;47970;52.396;9.586;2022-08-03T09:22:50;5.72;;;1.60;;
62014;SDS011;47970;52.396;9.586;2022-08-03T09:25:16;3.97;;;1.58;;
62014;SDS011;47970;52.396;9.586;2022-08-03T09:27:42;3.60;;;1.40;;
62014;SDS011;47970;52.396;9.586;2022-08-03T09:30:15;3.88;;;1.50;;
62014;SDS011;47970;52.396;9.586;2022-08-03T09:32:40;7.75;;;1.55;;
62014;SDS011;47970;52.396;9.586;2022-08-03T09:35:06;5.82;;;1.40;;
62014;SDS011;47970;52.396;9.586;2022-08-03T09:37:31;4.10;;;1.30;;
62014;SDS011;47970;52.396;9.586;2022-08-03T09:39:57;3.37;;;1.70;;
62014;SDS011;47970;52.396;9.586;2022-08-03T09:42:22;5.73;;;1.43;;
62014;SDS011;47970;52.396;9.586;2022-08-03T09:44:49;6.38;;;1.70;;
62014;SDS011;47970;52.396;9.586;2022-08-03T09:47:33;2.42;;;1.40;;
62014;SDS011;47970;52.396;9.586;2022-08-03T09:50:06;3.80;;;1.30;;
62014;SDS011;47970;52.396;9.586;2022-08-03T09:52:33;3.53;;;1.40;;
62014;SDS011;47970;52.396;9.586;2022-08-03T09:54:58;2.45;;;1.30;;
62014;SDS011;47970;52.396;9.586;2022-08-03T09:57:25;3.00;;;1.40;;
62014;SDS011;47970;52.396;9.586;2022-08-03T09:59:51;5.95;;;1.42;;
62014;SDS011;47970;52.396;9.586;2022-08-03T10:02:21;8.13;;;1.17;;
62014;SDS011;47970;52.396;9.586;2022-08-03T10:04:47;4.95;;;1.85;;
62014;SDS011;47970;52.396;9.586;2022-08-03T10:07:13;4.85;;;1.60;;
62014;SDS011;47970;52.396;9.586;2022-08-03T10:09:39;5.60;;;1.40;;
62014;SDS011;47970;52.396;9.586;2022-08-03T10:12:16;1.63;;;1.10;;
62014;SDS011;47970;52.396;9.586;2022-08-03T10:14:42;5.93;;;1.50;;
62014;SDS011;47970;52.396;9.586;2022-08-03T10:17:09;8.48;;;1.40;;
62014;SDS011;47970;52.396;9.586;2022-08-03T10:19:34;3.23;;;1.40;;
62014;SDS011;47970;52.396;9.586;2022-08-03T10:22:02;4.13;;;1.25;;
62014;SDS011;47970;52.396;9.586;2022-08-03T10:24:29;7.05;;;1.35;;
62014;SDS011;47970;52.396;9.586;2022-08-03T10:27:00;2.83;;;1.23;;
62014;SDS011;47970;52.396;9.586;2022-08-03T10:29:27;9.15;;;1.30;;
62014;SDS011;47970;52.396;9.586;2022-08-03T10:31:53;13.70;;;1.60;;
62014;SDS011;47970;52.396;9.586;2022-08-03T10:34:24;5.85;;;1.70;;
62014;SDS011;47970;52.396;9.586;2022-08-03T10:36:51;6.00;;;1.60;;
62014;SDS011;47970;52.396;9.586;2022-08-03T10:39:18;4.03;;;1.55;;
62014;SDS011;47970;52.396;9.586;2022-08-03T10:41:45;7.03;;;1.30;;
62014;SDS011;47970;52.396;9.586;2022-08-03T10:44:18;7.30;;;2.00;;
62014;SDS011;47970;52.396;9.586;2022-08-03T10:46:43;3.47;;;1.48;;
62014;SDS011;47970;52.396;9.586;2022-08-03T10:49:12;6.68;;;1.50;;
62014;SDS011;47970;52.396;9.586;2022-08-03T10:51:38;4.13;;;1.30;;
62014;SDS011;47970;52.396;9.586;2022-08-03T10:54:04;7.70;;;1.42;;
62014;SDS011;47970;52.396;9.586;2022-08-03T11:00:02;3.25;;;1.63;;
62014;SDS011;47970;52.396;9.586;2022-08-03T11:02:02;2.65;;;1.40;;
62014;SDS011;47970;52.396;9.586;2022-08-03T11:04:32;4.20;;;2.00;;
62014;SDS011;47970;52.396;9.586;2022-08-03T11:09:44;5.38;;;1.30;;
62014;SDS011;47970;52.396;9.586;2022-08-03T11:12:28;3.45;;;1.27;;
62014;SDS011;47970;52.396;9.586;2022-08-03T11:14:55;4.07;;;1.40;;
62014;SDS011;47970;52.396;9.586;2022-08-03T11:17:20;3.35;;;1.15;;
62014;SDS011;47970;52.396;9.586;2022-08-03T11:19:47;3.50;;;1.27;;
62014;SDS011;47970;52.396;9.586;2022-08-03T11:22:12;4.32;;;1.20;;
62014;SDS011;47970;52.396;9.586;2022-08-03T11:27:16;9.63;;;1.50;;
62014;SDS011;47970;52.396;9.586;2022-08-03T11:30:00;7.07;;;1.42;;
62014;SDS011;47970;52.396;9.586;2022-08-03T11:40:43;5.22;;;1.50;;
62014;SDS011;47970;52.396;9.586;2022-08-03T11:46:00;2.80;;;1.20;;
62014;SDS011;47970;52.396;9.586;2022-08-03T11:48:26;5.70;;;1.38;;
62014;SDS011;47970;52.396;9.586;2022-08-03T11:50:52;15.02;;;1.50;;
62014;SDS011;47970;52.396;9.586;2022-08-03T11:53:17;7.00;;;1.30;;
62014;SDS011;47970;52.396;9.586;2022-08-03T11:55:44;2.95;;;1.40;;
62014;SDS011;47970;52.396;9.586;2022-08-03T11:58:16;4.82;;;1.65;;
62014;SDS011;47970;52.396;9.586;2022-08-03T12:00:41;12.32;;;2.25;;
62014;SDS011;47970;52.396;9.586;2022-08-03T12:03:11;3.97;;;1.50;;
62014;SDS011;47970;52.396;9.586;2022-08-03T12:05:38;6.80;;;1.60;;
62014;SDS011;47970;52.396;9.586;2022-08-03T12:08:04;6.32;;;1.60;;
62014;SDS011;47970;52.396;9.586;2022-08-03T12:10:29;3.42;;;1.30;;
62014;SDS011;47970;52.396;9.586;2022-08-03T12:12:55;5.07;;;1.60;;
62014;SDS011;47970;52.396;9.586;2022-08-03T12:15:27;4.70;;;1.45;;
62014;SDS011;47970;52.396;9.586;2022-08-03T12:17:53;8.57;;;1.40;;
62014;SDS011;47970;52.396;9.586;2022-08-03T12:20:23;4.57;;;1.60;;
62014;SDS011;47970;52.396;9.586;2022-08-03T12:22:49;3.78;;;1.50;;
62014;SDS011;47970;52.396;9.586;2022-08-03T12:25:23;3.20;;;1.50;;
62014;SDS011;47970;52.396;9.586;2022-08-03T12:27:49;4.00;;;1.40;;
62014;SDS011;47970;52.396;9.586;2022-08-03T12:30:14;2.03;;;1.10;;
62014;SDS011;47970;52.396;9.586;2022-08-03T12:32:41;4.38;;;1.45;;
62014;SDS011;47970;52.396;9.586;2022-08-03T12:35:06;2.33;;;1.30;;
62014;SDS011;47970;52.396;9.586;2022-08-03T12:37:32;1.73;;;1.20;;
62014;SDS011;47970;52.396;9.586;2022-08-03T12:39:58;2.42;;;1.27;;
62014;SDS011;47970;52.396;9.586;2022-08-03T12:42:31;4.10;;;1.27;;
62014;SDS011;47970;52.396;9.586;2022-08-03T12:44:57;5.32;;;1.30;;
62014;SDS011;47970;52.396;9.586;2022-08-03T12:47:22;1.40;;;1.00;;
62014;SDS011;47970;52.396;9.586;2022-08-03T12:49:48;6.30;;;1.27;;
62014;SDS011;47970;52.396;9.586;2022-08-03T12:52:14;3.08;;;1.20;;
62014;SDS011;47970;52.396;9.586;2022-08-03T12:54:40;3.03;;;1.48;;
62014;SDS011;47970;52.396;9.586;2022-08-03T12:57:09;3.47;;;1.30;;
62014;SDS011;47970;52.396;9.586;2022-08-03T12:59:38;5.35;;;1.75;;
62014;SDS011;47970;52.396;9.586;2022-08-03T13:04:39;3.22;;;1.10;;
62014;SDS011;47970;52.396;9.586;2022-08-03T13:07:08;7.10;;;1.80;;
62014;SDS011;47970;52.396;9.586;2022-08-03T13:09:43;2.63;;;1.10;;
62014;SDS011;47970;52.396;9.586;2022-08-03T13:12:10;3.38;;;1.30;;
62014;SDS011;47970;52.396;9.586;2022-08-03T13:14:36;3.33;;;1.33;;
62014;SDS011;47970;52.396;9.586;2022-08-03T13:17:02;4.55;;;1.23;;
62014;SDS011;47970;52.396;9.586;2022-08-03T13:19:27;4.22;;;1.05;;
62014;SDS011;47970;52.396;9.586;2022-08-03T13:21:52;3.97;;;1.10;;
62014;SDS011;47970;52.396;9.586;2022-08-03T13:24:18;6.13;;;1.50;;
62014;SDS011;47970;52.396;9.586;2022-08-03T13:26:43;2.53;;;1.40;;
62014;SDS011;47970;52.396;9.586;2022-08-03T13:29:08;3.03;;;1.10;;
62014;SDS011;47970;52.396;9.586;2022-08-03T13:31:33;2.93;;;1.20;;
62014;SDS011;47970;52.396;9.586;2022-08-03T13:33:59;4.50;;;1.20;;
62014;SDS011;47970;52.396;9.586;2022-08-03T13:36:24;5.87;;;1.60;;
62014;SDS011;47970;52.396;9.586;2022-08-03T13:38:49;5.13;;;1.45;;
62014;SDS011;47970;52.396;9.586;2022-08-03T13:41:14;4.83;;;1.17;;
62014;SDS011;47970;52.396;9.586;2022-08-03T13:43:40;2.93;;;1.60;;
62014;SDS011;47970;52.396;9.586;2022-08-03T13:46:05;3.60;;;1.30;;
62014;SDS011;47970;52.396;9.586;2022-08-03T13:48:30;3.00;;;1.13;;
62014;SDS011;47970;52.396;9.586;2022-08-03T13:50:55;3.90;;;1.07;;
62014;SDS011;47970;52.396;9.586;2022-08-03T13:53:21;4.90;;;1.30;;
62014;SDS011;47970;52.396;9.586;2022-08-03T13:55:46;5.13;;;1.00;;
62014;SDS011;47970;52.396;9.586;2022-08-03T13:58:11;2.57;;;1.17;;
62014;SDS011;47970;52.396;9.586;2022-08-03T14:00:37;3.67;;;1.30;;
62014;SDS011;47970;52.396;9.586;2022-08-03T14:03:03;3.05;;;1.15;;
62014;SDS011;47970;52.396;9.586;2022-08-03T14:05:29;6.13;;;1.50;;
62014;SDS011;47970;52.396;9.586;2022-08-03T14:07:55;2.83;;;1.40;;
62014;SDS011;47970;52.396;9.586;2022-08-03T14:10:20;4.13;;;1.23;;
62014;SDS011;47970;52.396;9.586;2022-08-03T14:12:46;2.83;;;1.10;;
62014;SDS011;47970;52.396;9.586;2022-08-03T14:15:11;4.10;;;1.10;;
62014;SDS011;47970;52.396;9.586;2022-08-03T14:17:37;3.08;;;1.40;;
62014;SDS011;47970;52.396;9.586;2022-08-03T14:20:02;2.65;;;1.00;;
62014;SDS011;47970;52.396;9.586;2022-08-03T14:22:29;5.05;;;1.17;;
62014;SDS011;47970;52.396;9.586;2022-08-03T14:24:54;2.80;;;1.20;;
62014;SDS011;47970;52.396;9.586;2022-08-03T14:27:19;3.93;;;1.20;;
62014;SDS011;47970;52.396;9.586;2022-08-03T14:29:44;2.70;;;1.00;;
62014;SDS011;47970;52.396;9.586;2022-08-03T14:32:10;3.63;;;1.23;;
62014;SDS011;47970;52.396;9.586;2022-08-03T14:34:35;2.83;;;1.10;;
62014;SDS011;47970;52.396;9.586;2022-08-03T14:37:02;3.73;;;1.30;;
62014;SDS011;47970;52.396;9.586;2022-08-03T14:39:27;5.03;;;1.52;;
62014;SDS011;47970;52.396;9.586;2022-08-03T14:41:52;4.70;;;1.40;;
62014;SDS011;47970;52.396;9.586;2022-08-03T14:44:17;5.73;;;1.67;;
62014;SDS011;47970;52.396;9.586;2022-08-03T14:46:42;9.17;;;1.40;;
62014;SDS011;47970;52.396;9.586;2022-08-03T14:49:08;7.80;;;1.37;;
62014;SDS011;47970;52.396;9.586;2022-08-03T14:51:33;6.17;;;1.50;;
62014;SDS011;47970;52.396;9.586;2022-08-03T14:53:58;4.67;;;1.30;;
62014;SDS011;47970;52.396;9.586;2022-08-03T14:56:23;4.77;;;1.20;;
62014;SDS011;47970;52.396;9.586;2022-08-03T14:58:48;4.83;;;1.43;;
62014;SDS011;47970;52.396;9.586;2022-08-03T15:01:14;2.37;;;1.30;;
62014;SDS011;47970;52.396;9.586;2022-08-03T15:03:39;6.73;;;1.20;;
62014;SDS011;47970;52.396;9.586;2022-08-03T15:06:05;2.88;;;1.08;;
62014;SDS011;47970;52.396;9.586;2022-08-03T15:08:30;2.93;;;1.07;;
62014;SDS011;47970;52.396;9.586;2022-08-03T15:10:55;3.87;;;1.30;;
62014;SDS011;47970;52.396;9.586;2022-08-03T15:13:20;4.53;;;1.20;;
62014;SDS011;47970;52.396;9.586;2022-08-03T15:15:46;2.03;;;1.23;;